createdAt,value
2023-04-17T00:01:33.416Z,24.83
2023-04-17T00:05:34.604Z,24.53
2023-04-17T00:09:35.868Z,22.23
2023-04-17T00:13:37.055Z,23.33
2023-04-17T00:17:38.313Z,23.93
2023-04-17T00:21:39.486Z,26.33
2023-04-17T00:25:40.686Z,24.20
2023-04-17T00:29:41.850Z,25.50
2023-04-17T00:33:43.038Z,28.43
2023-04-17T00:37:44.184Z,25.03
2023-04-17T00:41:45.351Z,22.83
2023-04-17T00:45:47.564Z,26.07
2023-04-17T00:49:50.301Z,26.60
2023-04-17T00:53:51.914Z,26.63
2023-04-17T00:57:53.255Z,26.43
2023-04-17T01:01:57.908Z,29.37
2023-04-17T01:05:59.152Z,27.83
2023-04-17T01:10:01.125Z,27.73
2023-04-17T01:14:02.846Z,27.33
2023-04-17T01:18:06.391Z,27.77
2023-04-17T01:22:08.801Z,27.70
2023-04-17T01:26:17.083Z,31.30
2023-04-17T01:30:18.290Z,29.33
2023-04-17T01:34:19.647Z,31.07
2023-04-17T01:38:20.905Z,29.03
2023-04-17T01:42:22.102Z,29.33
2023-04-17T01:46:23.564Z,29.43
2023-04-17T01:50:25.068Z,30.93
2023-04-17T01:54:26.367Z,27.30
2023-04-17T01:58:27.562Z,29.20
2023-04-17T02:02:28.920Z,31.30
2023-04-17T02:06:31.378Z,27.03
2023-04-17T02:10:33.816Z,31.10
2023-04-17T02:14:35.078Z,30.37
2023-04-17T02:18:36.248Z,38.83
2023-04-17T02:22:37.533Z,35.07
2023-04-17T02:26:39.820Z,34.30
2023-04-17T02:30:41.146Z,34.57
2023-04-17T02:34:42.396Z,33.00
2023-04-17T02:38:43.547Z,33.70
2023-04-17T02:42:44.913Z,35.67
2023-04-17T02:46:46.125Z,37.03
2023-04-17T02:50:47.729Z,37.23
2023-04-17T02:54:48.834Z,35.07
2023-04-17T02:58:50.030Z,37.27
2023-04-17T03:02:52.026Z,37.90
2023-04-17T03:06:55.066Z,33.93
2023-04-17T03:10:56.303Z,38.80
2023-04-17T03:14:57.370Z,39.70
2023-04-17T03:18:58.551Z,39.70
2023-04-17T03:22:59.798Z,39.10
2023-04-17T03:27:01.564Z,40.63
2023-04-17T03:31:02.722Z,38.63
2023-04-17T03:35:04.660Z,36.93
2023-04-17T03:39:05.901Z,41.70
2023-04-17T03:43:07.064Z,42.63
2023-04-17T03:47:09.115Z,42.73
2023-04-17T03:51:10.256Z,52.77
2023-04-17T03:55:11.605Z,49.90
2023-04-17T03:59:12.936Z,46.33
2023-04-17T04:03:14.453Z,47.40
2023-04-17T04:07:15.756Z,47.33
2023-04-17T04:11:16.904Z,45.33
2023-04-17T04:15:18.056Z,47.43
2023-04-17T04:19:19.213Z,44.90
2023-04-17T04:23:20.453Z,44.70
2023-04-17T04:27:22.015Z,41.97
2023-04-17T04:31:24.905Z,43.77
2023-04-17T04:35:27.949Z,47.83
2023-04-17T04:39:29.214Z,44.30
2023-04-17T04:43:31.375Z,44.27
2023-04-17T04:47:32.554Z,45.90
2023-04-17T04:51:35.175Z,44.23
2023-04-17T04:55:36.349Z,45.87
2023-04-17T04:59:38.943Z,45.33
2023-04-17T05:03:40.801Z,41.30
2023-04-17T05:07:42.061Z,41.30
2023-04-17T05:11:43.227Z,46.80
2023-04-17T05:15:44.706Z,42.20
2023-04-17T05:19:46.053Z,44.73
2023-04-17T05:23:47.211Z,41.63
2023-04-17T05:27:49.293Z,42.83
2023-04-17T05:31:51.002Z,47.53
2023-04-17T05:35:55.396Z,44.87
2023-04-17T05:39:55.593Z,40.57
2023-04-17T05:43:56.753Z,39.17
2023-04-17T05:47:57.965Z,39.40
2023-04-17T05:51:59.118Z,42.30
2023-04-17T05:56:01.110Z,40.53
2023-04-17T06:00:04.506Z,37.10
2023-04-17T06:04:06.453Z,37.20
2023-04-17T06:08:08.133Z,38.30
2023-04-17T06:12:11.234Z,37.03
2023-04-17T06:16:12.602Z,34.70
2023-04-17T06:20:13.780Z,33.80
2023-04-17T06:24:15.186Z,36.57
2023-04-17T06:28:16.357Z,32.63
2023-04-17T06:32:17.510Z,33.17
2023-04-17T06:36:18.678Z,33.40
2023-04-17T06:40:19.937Z,32.00
2023-04-17T06:44:21.069Z,32.87
2023-04-17T06:48:22.241Z,33.63
2023-04-17T06:52:23.411Z,30.80
2023-04-17T06:56:25.088Z,30.73
2023-04-17T07:00:26.606Z,33.23
2023-04-17T07:04:31.168Z,32.63
2023-04-17T07:08:32.723Z,33.53
2023-04-17T07:12:33.877Z,30.63
2023-04-17T07:16:35.379Z,33.60
2023-04-17T07:20:36.549Z,36.13
2023-04-17T07:24:37.776Z,29.23
2023-04-17T07:28:39.710Z,33.80
2023-04-17T07:32:40.880Z,32.80
2023-04-17T07:36:42.006Z,38.10
2023-04-17T07:40:43.153Z,30.77
2023-04-17T07:44:46.006Z,31.53
2023-04-17T07:48:47.306Z,31.90
2023-04-17T07:52:50.243Z,35.80
2023-04-17T07:56:51.425Z,32.67
2023-04-17T08:00:53.943Z,31.57
2023-04-17T08:04:55.977Z,36.50
2023-04-17T08:08:59.182Z,32.37
2023-04-17T08:13:01.252Z,31.03
2023-04-17T08:17:03.268Z,40.23
2023-04-17T08:21:05.180Z,32.27
2023-04-17T08:25:08.717Z,34.57
2023-04-17T08:29:10.375Z,34.77
2023-04-17T08:33:12.789Z,32.50
2023-04-17T08:37:13.970Z,35.40
2023-04-17T08:41:24.451Z,36.00
2023-04-17T08:45:25.639Z,29.67
2023-04-17T08:49:32.405Z,35.93
2023-04-17T08:53:33.715Z,32.90
2023-04-17T08:57:36.206Z,35.23
2023-04-17T09:01:37.383Z,31.73
2023-04-17T09:05:45.415Z,28.50
2023-04-17T09:09:54.584Z,24.80
2023-04-17T09:14:03.675Z,26.07
2023-04-17T09:18:04.889Z,29.30
2023-04-17T09:22:21.112Z,26.40
2023-04-17T09:26:27.362Z,27.03
2023-04-17T09:30:34.588Z,24.57
2023-04-17T09:34:41.034Z,23.77
2023-04-17T09:38:42.142Z,25.73
2023-04-17T09:43:01.793Z,21.60
2023-04-17T09:47:04.175Z,18.10
2023-04-17T09:51:05.993Z,29.67
2023-04-17T09:55:10.283Z,16.10
2023-04-17T09:59:12.119Z,14.57
2023-04-17T10:03:15.568Z,12.80
2023-04-17T10:07:18.027Z,12.67
2023-04-17T10:11:21.233Z,11.87
2023-04-17T10:15:27.421Z,10.70
2023-04-17T10:19:35.004Z,11.10
2023-04-17T10:23:36.171Z,12.70
2023-04-17T10:27:41.269Z,9.83
2023-04-17T10:32:12.150Z,8.27
2023-04-17T10:36:33.844Z,5.60
2023-04-17T10:40:35.857Z,5.50
2023-04-17T10:44:40.146Z,4.23
2023-04-17T10:48:51.458Z,4.97
2023-04-17T10:52:52.662Z,11.03
2023-04-17T10:56:55.800Z,3.70
2023-04-17T11:01:01.365Z,4.17
2023-04-17T11:05:07.070Z,4.17
2023-04-17T11:09:10.287Z,4.03
2023-04-17T11:13:11.449Z,4.27
2023-04-17T11:17:12.688Z,4.47
2023-04-17T11:21:15.423Z,4.93
2023-04-17T11:25:22.761Z,5.10
2023-04-17T11:29:24.524Z,4.33
2023-04-17T11:33:25.675Z,4.00
2023-04-17T11:37:26.834Z,4.33
2023-04-17T11:41:38.391Z,4.33
2023-04-17T11:45:42.285Z,4.30
2023-04-17T11:49:43.523Z,4.77
2023-04-17T11:53:49.108Z,3.60
2023-04-17T11:57:53.698Z,3.50
2023-04-17T12:01:56.319Z,4.30
2023-04-17T12:06:00.279Z,4.80
2023-04-17T12:10:01.508Z,4.37
2023-04-17T12:14:04.472Z,4.80
2023-04-17T12:18:08.063Z,4.70
2023-04-17T12:22:09.358Z,4.30
2023-04-17T12:26:10.596Z,7.63
2023-04-17T12:30:13.582Z,5.60
2023-04-17T12:34:14.958Z,5.43
2023-04-17T12:38:16.422Z,7.10
2023-04-17T12:42:17.588Z,9.80
2023-04-17T12:46:18.991Z,6.67
2023-04-17T12:50:20.436Z,7.47
2023-04-17T12:54:21.579Z,6.80
2023-04-17T12:58:22.938Z,5.70
2023-04-17T13:02:24.182Z,6.33
2023-04-17T13:06:27.359Z,5.43
2023-04-17T13:10:29.125Z,5.33
2023-04-17T13:14:30.428Z,4.67
2023-04-17T13:18:31.600Z,4.60
2023-04-17T13:22:32.793Z,5.30
2023-04-17T13:26:34.000Z,4.40
2023-04-17T13:30:36.386Z,5.43
2023-04-17T13:34:37.600Z,4.03
2023-04-17T13:38:38.753Z,3.97
2023-04-17T13:42:39.969Z,4.80
2023-04-17T13:46:41.104Z,4.60
2023-04-17T13:50:42.325Z,5.17
2023-04-17T13:54:44.690Z,4.40
2023-04-17T13:58:47.267Z,5.97
2023-04-17T14:02:48.545Z,5.10
2023-04-17T14:06:50.221Z,10.20
2023-04-17T14:10:51.683Z,9.60
2023-04-17T14:14:52.941Z,6.33
2023-04-17T14:18:54.107Z,7.43
2023-04-17T14:22:55.266Z,8.20
2023-04-17T14:26:56.928Z,6.13
2023-04-17T14:30:58.321Z,5.90
2023-04-17T14:34:59.687Z,7.70
2023-04-17T14:39:01.004Z,8.73
2023-04-17T14:43:02.180Z,8.80
2023-04-17T14:47:03.895Z,6.70
2023-04-17T14:51:07.379Z,6.80
2023-04-17T14:55:10.233Z,8.53
2023-04-17T14:59:12.059Z,8.23
2023-04-17T15:03:13.705Z,6.13
2023-04-17T15:07:15.047Z,8.23
2023-04-17T15:11:16.203Z,6.00
2023-04-17T15:15:17.288Z,7.40
2023-04-17T15:19:18.458Z,6.90
2023-04-17T15:23:20.433Z,6.80
2023-04-17T15:27:21.745Z,7.63
2023-04-17T15:31:22.930Z,6.43
2023-04-17T15:35:24.138Z,6.80
2023-04-17T15:39:25.325Z,6.57
2023-04-17T15:43:26.482Z,9.07
2023-04-17T15:47:27.754Z,8.87
2023-04-17T15:51:29.485Z,8.33
2023-04-17T15:55:32.484Z,9.47
2023-04-17T15:59:33.654Z,7.70
2023-04-17T16:03:36.624Z,6.90
2023-04-17T16:07:38.742Z,9.20
2023-04-17T16:11:40.115Z,10.27
2023-04-17T16:15:41.361Z,8.30
2023-04-17T16:19:43.315Z,7.33
2023-04-17T16:23:45.636Z,10.30
2023-04-17T16:27:49.169Z,8.07
2023-04-17T16:31:52.458Z,11.70
2023-04-17T16:35:53.655Z,11.13
2023-04-17T16:39:54.984Z,11.63
2023-04-17T16:43:56.111Z,7.80
2023-04-17T16:47:57.305Z,8.90
2023-04-17T16:51:58.916Z,15.07
2023-04-17T16:56:00.164Z,8.60
2023-04-17T17:00:02.952Z,8.53
2023-04-17T17:04:04.342Z,8.83
2023-04-17T17:08:05.547Z,8.70
2023-04-17T17:12:07.316Z,8.23
2023-04-17T17:16:08.666Z,7.23
2023-04-17T17:20:10.853Z,11.23
2023-04-17T17:24:14.003Z,8.70
2023-04-17T17:28:15.296Z,8.70
2023-04-17T17:32:16.724Z,9.73
2023-04-17T17:36:18.418Z,9.77
2023-04-17T17:40:19.605Z,10.20
2023-04-17T17:44:21.064Z,9.97
2023-04-17T17:48:22.314Z,7.17
2023-04-17T17:52:23.577Z,9.10
2023-04-17T17:56:24.824Z,9.10
2023-04-17T18:00:26.118Z,10.43
2023-04-17T18:04:27.436Z,9.80
2023-04-17T18:08:28.797Z,10.67
2023-04-17T18:12:33.178Z,10.33
2023-04-17T18:16:38.949Z,9.97
2023-04-17T18:20:40.145Z,13.70
2023-04-17T18:24:41.657Z,8.50
2023-04-17T18:28:47.689Z,12.33
2023-04-17T18:32:52.040Z,10.00
2023-04-17T18:36:55.560Z,10.30
2023-04-17T18:41:02.619Z,9.00
2023-04-17T18:45:06.570Z,11.40
2023-04-17T18:49:08.308Z,10.53
2023-04-17T18:53:09.632Z,9.10
2023-04-17T18:57:10.870Z,10.67
2023-04-17T19:01:12.251Z,9.50
2023-04-17T19:05:13.490Z,9.40
2023-04-17T19:09:14.737Z,8.77
2023-04-17T19:13:15.863Z,11.77
2023-04-17T19:17:17.007Z,12.87
2023-04-17T19:21:20.085Z,12.10
2023-04-17T19:25:21.235Z,9.20
2023-04-17T19:29:22.461Z,8.97
2023-04-17T19:33:23.556Z,11.63
2023-04-17T19:37:25.050Z,8.93
2023-04-17T19:41:27.461Z,18.30
2023-04-17T19:45:32.745Z,9.53
2023-04-17T19:49:37.309Z,9.90
2023-04-17T19:53:40.405Z,12.63
2023-04-17T19:57:43.465Z,12.40
2023-04-17T20:01:44.992Z,11.97
2023-04-17T20:05:48.645Z,11.37
2023-04-17T20:09:49.905Z,9.67
2023-04-17T20:13:51.750Z,10.70
2023-04-17T20:17:54.827Z,12.10
2023-04-17T20:21:55.998Z,9.70
2023-04-17T20:25:57.686Z,10.23
2023-04-17T20:29:58.792Z,9.57
2023-04-17T20:34:00.409Z,10.07
2023-04-17T20:38:02.375Z,10.93
2023-04-17T20:42:03.631Z,9.30
2023-04-17T20:46:07.287Z,14.33
2023-04-17T20:50:09.149Z,11.00
2023-04-17T20:54:10.317Z,11.87
2023-04-17T20:58:11.598Z,11.83
2023-04-17T21:02:16.033Z,9.20
2023-04-17T21:06:17.340Z,11.20
2023-04-17T21:10:19.972Z,12.07
2023-04-17T21:14:21.258Z,11.50
2023-04-17T21:18:22.426Z,10.43
2023-04-17T21:22:23.578Z,9.50
2023-04-17T21:26:24.746Z,11.77
2023-04-17T21:30:27.327Z,15.37
2023-04-17T21:34:28.787Z,11.50
2023-04-17T21:38:29.937Z,11.13
2023-04-17T21:42:31.195Z,12.30
2023-04-17T21:46:32.394Z,10.37
2023-04-17T21:50:35.481Z,11.97
2023-04-17T21:54:38.069Z,13.73
2023-04-17T21:58:39.233Z,13.83
2023-04-17T22:02:40.544Z,12.43
2023-04-17T22:06:41.793Z,11.57
2023-04-17T22:10:43.005Z,13.80
2023-04-17T22:14:44.184Z,14.07
2023-04-17T22:18:45.352Z,10.70
2023-04-17T22:22:46.830Z,11.77
2023-04-17T22:26:47.984Z,11.60
2023-04-17T22:30:51.156Z,10.67
2023-04-17T22:34:52.321Z,11.87
2023-04-17T22:38:53.593Z,10.87
2023-04-17T22:42:57.228Z,10.87
2023-04-17T22:46:58.537Z,12.07
2023-04-17T22:51:00.589Z,11.23
2023-04-17T22:55:01.781Z,14.80
2023-04-17T22:59:03.324Z,11.10
2023-04-17T23:03:04.647Z,12.10
2023-04-17T23:07:05.988Z,12.10
2023-04-17T23:11:07.517Z,12.80
2023-04-17T23:15:09.348Z,11.80
2023-04-17T23:19:10.496Z,12.93
2023-04-17T23:23:11.785Z,11.13
2023-04-17T23:27:12.945Z,11.33
2023-04-17T23:31:14.147Z,12.00
2023-04-17T23:35:15.340Z,13.37
2023-04-17T23:39:16.510Z,12.60
2023-04-17T23:43:17.684Z,13.97
2023-04-17T23:47:18.907Z,12.97
2023-04-17T23:51:21.445Z,14.20
2023-04-17T23:55:24.969Z,12.40
2023-04-17T23:59:26.153Z,12.03
